sensor_id;sensor_type;location;lat;lon;timestamp;P1;durP1;ratioP1;P2;durP2;ratioP2
69511;SDS011;70777;52.034;4.644;2024-03-29T00:00:37;2.28;;;0.80;;
69511;SDS011;70777;52.034;4.644;2024-03-29T00:03:02;5.18;;;1.13;;
69511;SDS011;70777;52.034;4.644;2024-03-29T00:05:28;7.47;;;1.20;;
69511;SDS011;70777;52.034;4.644;2024-03-29T00:07:54;4.47;;;0.90;;
69511;SDS011;70777;52.034;4.644;2024-03-29T00:10:19;4.40;;;1.00;;
69511;SDS011;70777;52.034;4.644;2024-03-29T00:12:45;4.13;;;0.93;;
69511;SDS011;70777;52.034;4.644;2024-03-29T00:15:10;4.25;;;1.02;;
69511;SDS011;70777;52.034;4.644;2024-03-29T00:17:35;7.25;;;0.98;;
69511;SDS011;70777;52.034;4.644;2024-03-29T00:20:01;8.38;;;1.45;;
69511;SDS011;70777;52.034;4.644;2024-03-29T00:22:27;4.32;;;1.13;;
69511;SDS011;70777;52.034;4.644;2024-03-29T00:24:53;8.15;;;0.80;;
69511;SDS011;70777;52.034;4.644;2024-03-29T00:27:18;7.22;;;1.13;;
69511;SDS011;70777;52.034;4.644;2024-03-29T00:29:44;4.07;;;1.52;;
69511;SDS011;70777;52.034;4.644;2024-03-29T00:32:12;5.78;;;0.95;;
69511;SDS011;70777;52.034;4.644;2024-03-29T00:34:37;7.03;;;1.58;;
69511;SDS011;70777;52.034;4.644;2024-03-29T00:37:03;3.35;;;0.85;;
69511;SDS011;70777;52.034;4.644;2024-03-29T00:39:29;3.22;;;1.08;;
69511;SDS011;70777;52.034;4.644;2024-03-29T00:41:54;10.27;;;1.23;;
69511;SDS011;70777;52.034;4.644;2024-03-29T00:44:19;3.83;;;1.10;;
69511;SDS011;70777;52.034;4.644;2024-03-29T00:46:45;6.38;;;1.35;;
69511;SDS011;70777;52.034;4.644;2024-03-29T00:49:10;5.47;;;1.10;;
69511;SDS011;70777;52.034;4.644;2024-03-29T00:51:36;10.60;;;1.30;;
69511;SDS011;70777;52.034;4.644;2024-03-29T00:54:01;4.18;;;1.00;;
69511;SDS011;70777;52.034;4.644;2024-03-29T00:56:26;4.80;;;0.90;;
69511;SDS011;70777;52.034;4.644;2024-03-29T00:58:52;4.35;;;0.80;;
69511;SDS011;70777;52.034;4.644;2024-03-29T01:01:17;5.63;;;0.70;;
69511;SDS011;70777;52.034;4.644;2024-03-29T01:03:43;5.50;;;1.13;;
69511;SDS011;70777;52.034;4.644;2024-03-29T01:06:08;4.20;;;1.10;;
69511;SDS011;70777;52.034;4.644;2024-03-29T01:08:33;4.88;;;1.00;;
69511;SDS011;70777;52.034;4.644;2024-03-29T01:10:59;4.68;;;0.82;;
69511;SDS011;70777;52.034;4.644;2024-03-29T01:13:24;9.80;;;1.10;;
69511;SDS011;70777;52.034;4.644;2024-03-29T01:15:50;9.48;;;1.30;;
69511;SDS011;70777;52.034;4.644;2024-03-29T01:18:15;5.28;;;1.00;;
69511;SDS011;70777;52.034;4.644;2024-03-29T01:20:40;9.50;;;1.13;;
69511;SDS011;70777;52.034;4.644;2024-03-29T01:23:06;3.95;;;0.90;;
69511;SDS011;70777;52.034;4.644;2024-03-29T01:25:32;6.18;;;1.58;;
69511;SDS011;70777;52.034;4.644;2024-03-29T01:27:58;7.80;;;1.02;;
69511;SDS011;70777;52.034;4.644;2024-03-29T01:30:24;4.18;;;0.85;;
69511;SDS011;70777;52.034;4.644;2024-03-29T01:32:49;7.38;;;1.67;;
69511;SDS011;70777;52.034;4.644;2024-03-29T01:35:15;4.25;;;0.80;;
69511;SDS011;70777;52.034;4.644;2024-03-29T01:37:40;7.38;;;1.23;;
69511;SDS011;70777;52.034;4.644;2024-03-29T01:40:06;3.97;;;0.95;;
69511;SDS011;70777;52.034;4.644;2024-03-29T01:42:32;4.87;;;1.07;;
69511;SDS011;70777;52.034;4.644;2024-03-29T01:44:57;6.78;;;1.05;;
69511;SDS011;70777;52.034;4.644;2024-03-29T01:47:24;8.15;;;1.27;;
69511;SDS011;70777;52.034;4.644;2024-03-29T01:49:49;4.78;;;0.93;;
69511;SDS011;70777;52.034;4.644;2024-03-29T01:52:15;4.00;;;1.10;;
69511;SDS011;70777;52.034;4.644;2024-03-29T01:54:41;4.68;;;1.10;;
69511;SDS011;70777;52.034;4.644;2024-03-29T01:57:08;10.63;;;1.85;;
69511;SDS011;70777;52.034;4.644;2024-03-29T01:59:33;7.47;;;1.23;;
69511;SDS011;70777;52.034;4.644;2024-03-29T02:01:59;7.50;;;2.00;;
69511;SDS011;70777;52.034;4.644;2024-03-29T02:04:25;3.95;;;0.80;;
69511;SDS011;70777;52.034;4.644;2024-03-29T02:06:50;2.53;;;1.00;;
69511;SDS011;70777;52.034;4.644;2024-03-29T02:09:16;6.53;;;1.35;;
69511;SDS011;70777;52.034;4.644;2024-03-29T02:11:41;9.13;;;1.00;;
69511;SDS011;70777;52.034;4.644;2024-03-29T02:14:06;6.13;;;1.33;;
69511;SDS011;70777;52.034;4.644;2024-03-29T02:16:32;5.75;;;0.90;;
69511;SDS011;70777;52.034;4.644;2024-03-29T02:18:58;6.22;;;0.82;;
69511;SDS011;70777;52.034;4.644;2024-03-29T02:21:23;3.38;;;1.00;;
69511;SDS011;70777;52.034;4.644;2024-03-29T02:23:55;4.85;;;1.00;;
69511;SDS011;70777;52.034;4.644;2024-03-29T02:26:25;3.00;;;0.90;;
69511;SDS011;70777;52.034;4.644;2024-03-29T02:28:56;7.22;;;1.10;;
69511;SDS011;70777;52.034;4.644;2024-03-29T02:31:21;3.33;;;0.88;;
69511;SDS011;70777;52.034;4.644;2024-03-29T02:33:47;3.40;;;0.95;;
69511;SDS011;70777;52.034;4.644;2024-03-29T02:36:13;7.90;;;1.40;;
69511;SDS011;70777;52.034;4.644;2024-03-29T02:38:38;9.18;;;1.23;;
69511;SDS011;70777;52.034;4.644;2024-03-29T02:41:04;5.78;;;1.15;;
69511;SDS011;70777;52.034;4.644;2024-03-29T02:43:30;4.85;;;1.17;;
69511;SDS011;70777;52.034;4.644;2024-03-29T02:45:55;6.65;;;1.25;;
69511;SDS011;70777;52.034;4.644;2024-03-29T02:48:20;3.83;;;0.80;;
69511;SDS011;70777;52.034;4.644;2024-03-29T02:50:46;3.53;;;0.90;;
69511;SDS011;70777;52.034;4.644;2024-03-29T02:53:11;6.40;;;1.17;;
69511;SDS011;70777;52.034;4.644;2024-03-29T02:55:36;4.78;;;0.73;;
69511;SDS011;70777;52.034;4.644;2024-03-29T02:58:02;4.03;;;0.93;;
69511;SDS011;70777;52.034;4.644;2024-03-29T03:00:27;5.63;;;1.15;;
69511;SDS011;70777;52.034;4.644;2024-03-29T03:02:53;4.20;;;1.52;;
69511;SDS011;70777;52.034;4.644;2024-03-29T03:05:18;7.13;;;1.00;;
69511;SDS011;70777;52.034;4.644;2024-03-29T03:07:44;7.07;;;1.17;;
69511;SDS011;70777;52.034;4.644;2024-03-29T03:10:27;2.92;;;0.90;;
69511;SDS011;70777;52.034;4.644;2024-03-29T03:13:11;4.10;;;0.90;;
69511;SDS011;70777;52.034;4.644;2024-03-29T03:15:37;3.53;;;0.77;;
69511;SDS011;70777;52.034;4.644;2024-03-29T03:18:02;8.35;;;1.73;;
69511;SDS011;70777;52.034;4.644;2024-03-29T03:20:28;2.67;;;1.10;;
69511;SDS011;70777;52.034;4.644;2024-03-29T03:22:55;6.10;;;1.10;;
69511;SDS011;70777;52.034;4.644;2024-03-29T03:25:22;4.03;;;1.00;;
69511;SDS011;70777;52.034;4.644;2024-03-29T03:27:47;5.13;;;1.08;;
69511;SDS011;70777;52.034;4.644;2024-03-29T03:30:13;2.60;;;0.98;;
69511;SDS011;70777;52.034;4.644;2024-03-29T03:32:39;5.18;;;0.82;;
69511;SDS011;70777;52.034;4.644;2024-03-29T03:35:05;6.45;;;1.30;;
69511;SDS011;70777;52.034;4.644;2024-03-29T03:37:30;2.35;;;0.85;;
69511;SDS011;70777;52.034;4.644;2024-03-29T03:39:56;1.77;;;0.93;;
69511;SDS011;70777;52.034;4.644;2024-03-29T03:42:22;5.55;;;1.45;;
69511;SDS011;70777;52.034;4.644;2024-03-29T03:44:47;3.78;;;0.82;;
69511;SDS011;70777;52.034;4.644;2024-03-29T03:47:12;4.80;;;1.20;;
69511;SDS011;70777;52.034;4.644;2024-03-29T03:49:38;4.13;;;1.20;;
69511;SDS011;70777;52.034;4.644;2024-03-29T03:52:03;9.70;;;1.20;;
69511;SDS011;70777;52.034;4.644;2024-03-29T03:54:29;3.80;;;0.93;;
69511;SDS011;70777;52.034;4.644;2024-03-29T03:56:54;3.85;;;1.20;;
69511;SDS011;70777;52.034;4.644;2024-03-29T03:59:20;5.07;;;1.35;;
69511;SDS011;70777;52.034;4.644;2024-03-29T04:01:45;5.22;;;1.27;;
69511;SDS011;70777;52.034;4.644;2024-03-29T04:04:10;3.38;;;1.58;;
69511;SDS011;70777;52.034;4.644;2024-03-29T04:06:36;4.53;;;1.00;;
69511;SDS011;70777;52.034;4.644;2024-03-29T04:09:01;3.42;;;0.80;;
69511;SDS011;70777;52.034;4.644;2024-03-29T04:11:27;2.92;;;1.15;;
69511;SDS011;70777;52.034;4.644;2024-03-29T04:13:54;0.80;;;0.60;;
69511;SDS011;70777;52.034;4.644;2024-03-29T04:16:19;3.95;;;1.08;;
69511;SDS011;70777;52.034;4.644;2024-03-29T04:18:45;3.78;;;0.82;;
69511;SDS011;70777;52.034;4.644;2024-03-29T04:21:10;1.33;;;0.63;;
69511;SDS011;70777;52.034;4.644;2024-03-29T04:23:36;1.50;;;0.90;;
69511;SDS011;70777;52.034;4.644;2024-03-29T04:26:02;3.83;;;0.80;;
69511;SDS011;70777;52.034;4.644;2024-03-29T04:28:27;2.03;;;0.90;;
69511;SDS011;70777;52.034;4.644;2024-03-29T04:30:56;4.47;;;1.23;;
69511;SDS011;70777;52.034;4.644;2024-03-29T04:33:23;2.58;;;0.77;;
69511;SDS011;70777;52.034;4.644;2024-03-29T04:35:55;2.25;;;0.93;;
69511;SDS011;70777;52.034;4.644;2024-03-29T04:38:25;2.80;;;0.73;;
69511;SDS011;70777;52.034;4.644;2024-03-29T04:40:51;2.05;;;0.80;;
69511;SDS011;70777;52.034;4.644;2024-03-29T04:43:18;1.15;;;0.73;;
69511;SDS011;70777;52.034;4.644;2024-03-29T04:45:44;1.38;;;0.80;;
69511;SDS011;70777;52.034;4.644;2024-03-29T04:48:10;1.50;;;0.70;;
69511;SDS011;70777;52.034;4.644;2024-03-29T04:50:36;1.08;;;0.57;;
69511;SDS011;70777;52.034;4.644;2024-03-29T04:53:01;3.45;;;0.70;;
69511;SDS011;70777;52.034;4.644;2024-03-29T04:55:27;2.03;;;0.60;;
69511;SDS011;70777;52.034;4.644;2024-03-29T04:57:52;1.60;;;0.52;;
69511;SDS011;70777;52.034;4.644;2024-03-29T05:00:18;2.45;;;0.75;;
69511;SDS011;70777;52.034;4.644;2024-03-29T05:02:43;3.40;;;0.63;;
69511;SDS011;70777;52.034;4.644;2024-03-29T05:05:09;3.65;;;0.88;;
69511;SDS011;70777;52.034;4.644;2024-03-29T05:07:34;0.90;;;0.60;;
69511;SDS011;70777;52.034;4.644;2024-03-29T05:10:00;2.15;;;0.60;;
69511;SDS011;70777;52.034;4.644;2024-03-29T05:12:25;1.85;;;0.80;;
69511;SDS011;70777;52.034;4.644;2024-03-29T05:14:51;1.27;;;0.40;;
69511;SDS011;70777;52.034;4.644;2024-03-29T05:17:16;2.00;;;0.52;;
69511;SDS011;70777;52.034;4.644;2024-03-29T05:19:42;2.55;;;0.60;;
69511;SDS011;70777;52.034;4.644;2024-03-29T05:22:08;0.90;;;0.40;;
69511;SDS011;70777;52.034;4.644;2024-03-29T05:24:34;1.45;;;0.47;;
69511;SDS011;70777;52.034;4.644;2024-03-29T05:26:59;1.60;;;0.50;;
69511;SDS011;70777;52.034;4.644;2024-03-29T05:29:24;1.17;;;0.50;;
69511;SDS011;70777;52.034;4.644;2024-03-29T05:31:50;2.13;;;0.60;;
69511;SDS011;70777;52.034;4.644;2024-03-29T05:34:15;1.13;;;0.50;;
69511;SDS011;70777;52.034;4.644;2024-03-29T05:36:40;1.08;;;0.45;;
69511;SDS011;70777;52.034;4.644;2024-03-29T05:39:06;0.73;;;0.40;;
69511;SDS011;70777;52.034;4.644;2024-03-29T05:41:31;3.78;;;0.68;;
69511;SDS011;70777;52.034;4.644;2024-03-29T05:43:57;1.85;;;0.40;;
69511;SDS011;70777;52.034;4.644;2024-03-29T05:46:23;0.50;;;0.43;;
69511;SDS011;70777;52.034;4.644;2024-03-29T05:48:48;1.73;;;0.50;;
69511;SDS011;70777;52.034;4.644;2024-03-29T05:51:14;0.85;;;0.45;;
69511;SDS011;70777;52.034;4.644;2024-03-29T05:53:39;3.08;;;0.50;;
69511;SDS011;70777;52.034;4.644;2024-03-29T05:56:05;2.47;;;0.68;;
69511;SDS011;70777;52.034;4.644;2024-03-29T05:58:32;1.02;;;0.50;;
69511;SDS011;70777;52.034;4.644;2024-03-29T06:01:01;2.35;;;0.70;;
69511;SDS011;70777;52.034;4.644;2024-03-29T06:03:26;1.95;;;0.50;;
69511;SDS011;70777;52.034;4.644;2024-03-29T06:05:52;3.10;;;0.60;;
69511;SDS011;70777;52.034;4.644;2024-03-29T06:08:17;1.25;;;0.73;;
69511;SDS011;70777;52.034;4.644;2024-03-29T06:10:43;1.48;;;0.60;;
69511;SDS011;70777;52.034;4.644;2024-03-29T06:13:08;1.77;;;0.57;;
69511;SDS011;70777;52.034;4.644;2024-03-29T06:15:42;2.60;;;0.60;;
69511;SDS011;70777;52.034;4.644;2024-03-29T06:18:26;2.97;;;0.80;;
69511;SDS011;70777;52.034;4.644;2024-03-29T06:20:52;1.58;;;0.60;;
69511;SDS011;70777;52.034;4.644;2024-03-29T06:23:17;3.20;;;0.80;;
69511;SDS011;70777;52.034;4.644;2024-03-29T06:25:44;2.38;;;1.15;;
69511;SDS011;70777;52.034;4.644;2024-03-29T06:28:09;1.13;;;0.52;;
69511;SDS011;70777;52.034;4.644;2024-03-29T06:30:35;5.75;;;1.23;;
69511;SDS011;70777;52.034;4.644;2024-03-29T06:33:00;3.03;;;0.60;;
69511;SDS011;70777;52.034;4.644;2024-03-29T06:35:29;1.42;;;0.70;;
69511;SDS011;70777;52.034;4.644;2024-03-29T06:37:54;0.82;;;0.60;;
69511;SDS011;70777;52.034;4.644;2024-03-29T06:40:20;3.90;;;0.90;;
69511;SDS011;70777;52.034;4.644;2024-03-29T06:42:46;2.13;;;0.68;;
69511;SDS011;70777;52.034;4.644;2024-03-29T06:45:11;4.22;;;0.70;;
69511;SDS011;70777;52.034;4.644;2024-03-29T06:47:37;1.88;;;0.77;;
69511;SDS011;70777;52.034;4.644;2024-03-29T06:50:02;2.63;;;0.63;;
69511;SDS011;70777;52.034;4.644;2024-03-29T06:52:28;1.05;;;0.55;;
69511;SDS011;70777;52.034;4.644;2024-03-29T06:54:53;1.70;;;0.93;;
69511;SDS011;70777;52.034;4.644;2024-03-29T06:57:19;2.05;;;0.70;;
69511;SDS011;70777;52.034;4.644;2024-03-29T06:59:48;3.28;;;1.10;;
69511;SDS011;70777;52.034;4.644;2024-03-29T07:02:13;1.35;;;0.80;;
69511;SDS011;70777;52.034;4.644;2024-03-29T07:04:39;2.50;;;0.60;;
69511;SDS011;70777;52.034;4.644;2024-03-29T07:07:04;1.63;;;0.60;;
69511;SDS011;70777;52.034;4.644;2024-03-29T07:09:30;2.17;;;0.68;;
69511;SDS011;70777;52.034;4.644;2024-03-29T07:11:55;1.63;;;0.60;;
69511;SDS011;70777;52.034;4.644;2024-03-29T07:14:22;1.55;;;0.60;;
69511;SDS011;70777;52.034;4.644;2024-03-29T07:16:48;1.27;;;0.60;;
69511;SDS011;70777;52.034;4.644;2024-03-29T07:19:13;2.88;;;0.60;;
69511;SDS011;70777;52.034;4.644;2024-03-29T07:21:41;2.85;;;0.32;;
69511;SDS011;70777;52.034;4.644;2024-03-29T07:24:10;1.05;;;0.55;;
69511;SDS011;70777;52.034;4.644;2024-03-29T07:26:36;5.05;;;0.90;;
69511;SDS011;70777;52.034;4.644;2024-03-29T07:29:01;1.40;;;0.70;;
69511;SDS011;70777;52.034;4.644;2024-03-29T07:31:27;2.20;;;0.60;;
69511;SDS011;70777;52.034;4.644;2024-03-29T07:33:52;1.92;;;0.70;;
69511;SDS011;70777;52.034;4.644;2024-03-29T07:36:18;2.13;;;0.75;;
69511;SDS011;70777;52.034;4.644;2024-03-29T07:38:43;2.35;;;0.75;;
69511;SDS011;70777;52.034;4.644;2024-03-29T07:41:09;1.83;;;0.80;;
69511;SDS011;70777;52.034;4.644;2024-03-29T07:43:39;1.50;;;0.75;;
69511;SDS011;70777;52.034;4.644;2024-03-29T07:46:05;4.80;;;1.08;;
69511;SDS011;70777;52.034;4.644;2024-03-29T07:48:33;1.85;;;1.00;;
69511;SDS011;70777;52.034;4.644;2024-03-29T07:50:59;2.22;;;0.90;;
69511;SDS011;70777;52.034;4.644;2024-03-29T07:53:24;3.20;;;1.10;;
69511;SDS011;70777;52.034;4.644;2024-03-29T07:55:50;2.75;;;1.15;;
69511;SDS011;70777;52.034;4.644;2024-03-29T07:58:15;1.45;;;0.80;;
69511;SDS011;70777;52.034;4.644;2024-03-29T08:00:42;2.47;;;0.90;;
69511;SDS011;70777;52.034;4.644;2024-03-29T08:03:07;1.45;;;1.00;;
69511;SDS011;70777;52.034;4.644;2024-03-29T08:05:33;5.35;;;1.00;;
69511;SDS011;70777;52.034;4.644;2024-03-29T08:07:59;2.25;;;1.02;;
69511;SDS011;70777;52.034;4.644;2024-03-29T08:10:25;3.28;;;1.10;;
69511;SDS011;70777;52.034;4.644;2024-03-29T08:12:50;2.88;;;0.90;;
69511;SDS011;70777;52.034;4.644;2024-03-29T08:15:16;2.13;;;1.20;;
69511;SDS011;70777;52.034;4.644;2024-03-29T08:17:43;4.68;;;1.25;;
69511;SDS011;70777;52.034;4.644;2024-03-29T08:20:09;2.75;;;1.25;;
69511;SDS011;70777;52.034;4.644;2024-03-29T08:22:34;1.27;;;0.90;;
69511;SDS011;70777;52.034;4.644;2024-03-29T08:25:00;1.45;;;1.17;;
69511;SDS011;70777;52.034;4.644;2024-03-29T08:27:26;1.63;;;0.93;;
69511;SDS011;70777;52.034;4.644;2024-03-29T08:29:52;3.58;;;1.00;;
69511;SDS011;70777;52.034;4.644;2024-03-29T08:32:18;5.28;;;1.42;;
69511;SDS011;70777;52.034;4.644;2024-03-29T08:34:44;1.70;;;0.90;;
69511;SDS011;70777;52.034;4.644;2024-03-29T08:37:09;1.90;;;1.02;;
69511;SDS011;70777;52.034;4.644;2024-03-29T08:39:34;1.70;;;1.10;;
69511;SDS011;70777;52.034;4.644;2024-03-29T08:42:00;2.00;;;0.95;;
69511;SDS011;70777;52.034;4.644;2024-03-29T08:44:30;3.95;;;1.23;;
69511;SDS011;70777;52.034;4.644;2024-03-29T08:46:56;1.83;;;1.00;;
69511;SDS011;70777;52.034;4.644;2024-03-29T08:51:49;2.63;;;0.80;;
69511;SDS011;70777;52.034;4.644;2024-03-29T08:54:14;1.35;;;0.70;;
69511;SDS011;70777;52.034;4.644;2024-03-29T08:56:40;1.60;;;1.00;;
69511;SDS011;70777;52.034;4.644;2024-03-29T08:59:05;1.20;;;0.80;;
69511;SDS011;70777;52.034;4.644;2024-03-29T09:01:41;2.08;;;0.80;;
69511;SDS011;70777;52.034;4.644;2024-03-29T09:04:09;0.70;;;0.50;;
69511;SDS011;70777;52.034;4.644;2024-03-29T09:06:36;0.88;;;0.50;;
69511;SDS011;70777;52.034;4.644;2024-03-29T09:09:02;3.17;;;0.70;;
69511;SDS011;70777;52.034;4.644;2024-03-29T09:11:29;1.45;;;0.70;;
69511;SDS011;70777;52.034;4.644;2024-03-29T09:13:55;0.93;;;0.70;;
69511;SDS011;70777;52.034;4.644;2024-03-29T09:16:21;1.05;;;0.60;;
69511;SDS011;70777;52.034;4.644;2024-03-29T09:18:47;3.55;;;0.80;;
69511;SDS011;70777;52.034;4.644;2024-03-29T09:21:12;1.27;;;0.70;;
69511;SDS011;70777;52.034;4.644;2024-03-29T09:23:38;1.27;;;0.85;;
69511;SDS011;70777;52.034;4.644;2024-03-29T09:26:06;1.40;;;0.70;;
69511;SDS011;70777;52.034;4.644;2024-03-29T09:28:32;2.33;;;0.70;;
69511;SDS011;70777;52.034;4.644;2024-03-29T09:30:59;1.23;;;0.88;;
69511;SDS011;70777;52.034;4.644;2024-03-29T09:33:25;1.77;;;0.77;;
69511;SDS011;70777;52.034;4.644;2024-03-29T09:35:50;2.13;;;0.90;;
69511;SDS011;70777;52.034;4.644;2024-03-29T09:38:16;2.42;;;1.30;;
69511;SDS011;70777;52.034;4.644;2024-03-29T09:40:42;0.75;;;0.70;;
69511;SDS011;70777;52.034;4.644;2024-03-29T09:43:08;1.38;;;0.90;;
69511;SDS011;70777;52.034;4.644;2024-03-29T09:48:03;1.15;;;0.60;;
69511;SDS011;70777;52.034;4.644;2024-03-29T09:50:29;3.83;;;1.10;;
69511;SDS011;70777;52.034;4.644;2024-03-29T09:52:58;2.97;;;0.75;;
69511;SDS011;70777;52.034;4.644;2024-03-29T09:55:24;1.75;;;0.70;;
69511;SDS011;70777;52.034;4.644;2024-03-29T09:57:49;1.25;;;0.80;;
69511;SDS011;70777;52.034;4.644;2024-03-29T10:00:16;3.38;;;1.20;;
69511;SDS011;70777;52.034;4.644;2024-03-29T10:05:08;4.20;;;1.30;;
69511;SDS011;70777;52.034;4.644;2024-03-29T10:07:33;7.70;;;1.75;;
69511;SDS011;70777;52.034;4.644;2024-03-29T10:10:01;3.60;;;1.40;;
69511;SDS011;70777;52.034;4.644;2024-03-29T10:12:27;4.40;;;1.77;;
69511;SDS011;70777;52.034;4.644;2024-03-29T10:14:53;5.50;;;2.40;;
69511;SDS011;70777;52.034;4.644;2024-03-29T10:17:23;4.10;;;2.42;;
69511;SDS011;70777;52.034;4.644;2024-03-29T10:19:49;4.20;;;2.58;;
69511;SDS011;70777;52.034;4.644;2024-03-29T10:22:15;3.22;;;2.40;;
69511;SDS011;70777;52.034;4.644;2024-03-29T10:24:41;3.80;;;2.63;;
69511;SDS011;70777;52.034;4.644;2024-03-29T10:27:07;3.63;;;2.70;;
69511;SDS011;70777;52.034;4.644;2024-03-29T10:29:32;5.28;;;3.00;;
69511;SDS011;70777;52.034;4.644;2024-03-29T10:31:58;5.05;;;2.95;;
69511;SDS011;70777;52.034;4.644;2024-03-29T10:34:26;4.00;;;3.03;;
69511;SDS011;70777;52.034;4.644;2024-03-29T10:36:52;5.97;;;3.13;;
69511;SDS011;70777;52.034;4.644;2024-03-29T10:39:17;4.35;;;2.60;;
69511;SDS011;70777;52.034;4.644;2024-03-29T10:41:43;4.15;;;2.42;;
69511;SDS011;70777;52.034;4.644;2024-03-29T10:44:10;4.57;;;2.38;;
69511;SDS011;70777;52.034;4.644;2024-03-29T10:46:37;5.55;;;3.38;;
69511;SDS011;70777;52.034;4.644;2024-03-29T10:49:09;4.32;;;2.28;;
69511;SDS011;70777;52.034;4.644;2024-03-29T10:51:39;3.97;;;2.33;;
69511;SDS011;70777;52.034;4.644;2024-03-29T10:54:07;3.65;;;2.20;;
69511;SDS011;70777;52.034;4.644;2024-03-29T10:56:34;4.82;;;2.28;;
69511;SDS011;70777;52.034;4.644;2024-03-29T11:02:11;3.92;;;2.17;;
69511;SDS011;70777;52.034;4.644;2024-03-29T11:04:38;6.13;;;2.45;;
69511;SDS011;70777;52.034;4.644;2024-03-29T11:07:06;5.00;;;2.30;;
69511;SDS011;70777;52.034;4.644;2024-03-29T11:09:33;6.00;;;2.20;;
69511;SDS011;70777;52.034;4.644;2024-03-29T11:11:58;4.20;;;1.85;;
69511;SDS011;70777;52.034;4.644;2024-03-29T11:14:29;2.03;;;1.40;;
69511;SDS011;70777;52.034;4.644;2024-03-29T11:16:58;2.70;;;1.30;;
69511;SDS011;70777;52.034;4.644;2024-03-29T11:19:24;5.80;;;1.40;;
69511;SDS011;70777;52.034;4.644;2024-03-29T11:21:50;2.85;;;1.42;;
69511;SDS011;70777;52.034;4.644;2024-03-29T11:24:18;4.20;;;1.52;;
69511;SDS011;70777;52.034;4.644;2024-03-29T11:26:47;3.65;;;1.58;;
69511;SDS011;70777;52.034;4.644;2024-03-29T11:29:19;2.42;;;1.58;;
69511;SDS011;70777;52.034;4.644;2024-03-29T11:31:46;5.05;;;2.00;;
69511;SDS011;70777;52.034;4.644;2024-03-29T11:34:14;2.83;;;1.52;;
69511;SDS011;70777;52.034;4.644;2024-03-29T11:36:39;3.38;;;1.58;;
69511;SDS011;70777;52.034;4.644;2024-03-29T11:39:05;4.68;;;1.60;;
69511;SDS011;70777;52.034;4.644;2024-03-29T11:41:30;6.35;;;1.83;;
69511;SDS011;70777;52.034;4.644;2024-03-29T11:43:57;2.13;;;1.20;;
69511;SDS011;70777;52.034;4.644;2024-03-29T11:46:23;6.05;;;1.73;;
69511;SDS011;70777;52.034;4.644;2024-03-29T11:48:49;2.92;;;1.90;;
69511;SDS011;70777;52.034;4.644;2024-03-29T11:51:17;4.90;;;1.80;;
69511;SDS011;70777;52.034;4.644;2024-03-29T11:53:46;2.53;;;1.50;;
69511;SDS011;70777;52.034;4.644;2024-03-29T11:56:12;5.43;;;1.67;;
69511;SDS011;70777;52.034;4.644;2024-03-29T11:58:39;9.15;;;1.77;;
69511;SDS011;70777;52.034;4.644;2024-03-29T12:01:04;6.80;;;1.77;;
69511;SDS011;70777;52.034;4.644;2024-03-29T12:03:30;3.40;;;1.20;;
69511;SDS011;70777;52.034;4.644;2024-03-29T12:05:57;2.22;;;1.23;;
69511;SDS011;70777;52.034;4.644;2024-03-29T12:08:27;2.53;;;1.20;;
69511;SDS011;70777;52.034;4.644;2024-03-29T12:11:00;3.08;;;1.17;;
69511;SDS011;70777;52.034;4.644;2024-03-29T12:13:26;2.80;;;1.75;;
69511;SDS011;70777;52.034;4.644;2024-03-29T12:15:52;2.57;;;1.80;;
69511;SDS011;70777;52.034;4.644;2024-03-29T12:18:19;4.17;;;1.67;;
69511;SDS011;70777;52.034;4.644;2024-03-29T12:20:46;4.05;;;2.17;;
69511;SDS011;70777;52.034;4.644;2024-03-29T12:23:14;5.10;;;2.38;;
69511;SDS011;70777;52.034;4.644;2024-03-29T12:25:41;3.85;;;1.75;;
69511;SDS011;70777;52.034;4.644;2024-03-29T12:28:06;3.33;;;2.17;;
69511;SDS011;70777;52.034;4.644;2024-03-29T12:30:32;2.67;;;2.33;;
69511;SDS011;70777;52.034;4.644;2024-03-29T12:33:05;2.47;;;2.22;;
69511;SDS011;70777;52.034;4.644;2024-03-29T12:35:31;5.00;;;2.38;;
69511;SDS011;70777;52.034;4.644;2024-03-29T12:37:59;4.18;;;2.88;;
69511;SDS011;70777;52.034;4.644;2024-03-29T12:42:51;3.90;;;2.73;;
69511;SDS011;70777;52.034;4.644;2024-03-29T12:45:20;5.93;;;2.93;;
69511;SDS011;70777;52.034;4.644;2024-03-29T12:47:47;8.30;;;3.35;;
69511;SDS011;70777;52.034;4.644;2024-03-29T12:52:49;2.30;;;2.10;;
69511;SDS011;70777;52.034;4.644;2024-03-29T12:55:14;3.25;;;2.00;;
69511;SDS011;70777;52.034;4.644;2024-03-29T12:57:43;4.45;;;2.22;;
69511;SDS011;70777;52.034;4.644;2024-03-29T13:00:09;6.77;;;2.80;;
69511;SDS011;70777;52.034;4.644;2024-03-29T13:02:36;4.72;;;2.42;;
69511;SDS011;70777;52.034;4.644;2024-03-29T13:05:03;4.37;;;2.30;;
69511;SDS011;70777;52.034;4.644;2024-03-29T13:07:29;4.03;;;2.45;;
69511;SDS011;70777;52.034;4.644;2024-03-29T13:09:55;8.87;;;2.83;;
69511;SDS011;70777;52.034;4.644;2024-03-29T13:12:20;3.42;;;2.47;;
69511;SDS011;70777;52.034;4.644;2024-03-29T13:14:46;3.80;;;2.30;;
69511;SDS011;70777;52.034;4.644;2024-03-29T13:17:11;3.70;;;2.10;;
69511;SDS011;70777;52.034;4.644;2024-03-29T13:19:37;3.67;;;1.95;;
69511;SDS011;70777;52.034;4.644;2024-03-29T13:22:02;6.17;;;2.00;;
69511;SDS011;70777;52.034;4.644;2024-03-29T13:24:28;4.23;;;1.80;;
69511;SDS011;70777;52.034;4.644;2024-03-29T13:26:55;7.38;;;2.13;;
69511;SDS011;70777;52.034;4.644;2024-03-29T13:29:21;8.00;;;1.77;;
69511;SDS011;70777;52.034;4.644;2024-03-29T13:31:46;5.40;;;1.67;;
69511;SDS011;70777;52.034;4.644;2024-03-29T13:34:11;2.87;;;1.30;;
69511;SDS011;70777;52.034;4.644;2024-03-29T13:36:40;3.60;;;1.60;;
69511;SDS011;70777;52.034;4.644;2024-03-29T13:39:07;5.22;;;1.85;;
69511;SDS011;70777;52.034;4.644;2024-03-29T13:41:33;4.25;;;1.40;;
69511;SDS011;70777;52.034;4.644;2024-03-29T13:44:02;4.65;;;1.55;;
69511;SDS011;70777;52.034;4.644;2024-03-29T13:46:32;5.65;;;2.20;;
69511;SDS011;70777;52.034;4.644;2024-03-29T13:48:58;3.42;;;1.30;;
69511;SDS011;70777;52.034;4.644;2024-03-29T13:51:24;3.88;;;1.40;;
69511;SDS011;70777;52.034;4.644;2024-03-29T13:53:49;3.40;;;1.40;;
69511;SDS011;70777;52.034;4.644;2024-03-29T13:56:14;2.88;;;1.55;;
69511;SDS011;70777;52.034;4.644;2024-03-29T13:58:40;6.18;;;1.75;;
69511;SDS011;70777;52.034;4.644;2024-03-29T14:01:05;3.63;;;1.70;;
69511;SDS011;70777;52.034;4.644;2024-03-29T14:03:31;3.55;;;1.70;;
69511;SDS011;70777;52.034;4.644;2024-03-29T14:05:56;4.05;;;1.88;;
69511;SDS011;70777;52.034;4.644;2024-03-29T14:08:22;2.80;;;1.65;;
69511;SDS011;70777;52.034;4.644;2024-03-29T14:10:47;4.32;;;1.55;;
69511;SDS011;70777;52.034;4.644;2024-03-29T14:13:14;6.13;;;1.50;;
69511;SDS011;70777;52.034;4.644;2024-03-29T14:15:40;4.70;;;1.53;;
69511;SDS011;70777;52.034;4.644;2024-03-29T14:18:05;3.58;;;1.60;;
69511;SDS011;70777;52.034;4.644;2024-03-29T14:20:31;5.05;;;1.42;;
69511;SDS011;70777;52.034;4.644;2024-03-29T14:22:56;17.10;;;1.92;;
69511;SDS011;70777;52.034;4.644;2024-03-29T14:25:26;1.50;;;1.33;;
69511;SDS011;70777;52.034;4.644;2024-03-29T14:27:52;2.70;;;1.30;;
69511;SDS011;70777;52.034;4.644;2024-03-29T14:30:22;3.10;;;1.50;;
69511;SDS011;70777;52.034;4.644;2024-03-29T14:32:50;2.85;;;1.40;;
69511;SDS011;70777;52.034;4.644;2024-03-29T14:35:16;3.03;;;1.63;;
69511;SDS011;70777;52.034;4.644;2024-03-29T14:37:42;4.95;;;1.58;;
69511;SDS011;70777;52.034;4.644;2024-03-29T14:40:10;3.40;;;1.60;;
69511;SDS011;70777;52.034;4.644;2024-03-29T14:42:43;3.53;;;1.50;;
69511;SDS011;70777;52.034;4.644;2024-03-29T14:45:09;3.92;;;1.50;;
69511;SDS011;70777;52.034;4.644;2024-03-29T14:47:36;2.22;;;1.50;;
69511;SDS011;70777;52.034;4.644;2024-03-29T14:50:03;2.13;;;1.50;;
69511;SDS011;70777;52.034;4.644;2024-03-29T14:52:30;2.92;;;1.38;;
69511;SDS011;70777;52.034;4.644;2024-03-29T14:54:59;8.00;;;1.30;;
69511;SDS011;70777;52.034;4.644;2024-03-29T14:57:24;4.43;;;1.40;;